sensor_id;sensor_type;location;lat;lon;timestamp;temperature;humidity
17170;DHT22;8700;48.222;16.342;2023-04-01T00:02:36;12.20;99.90
17170;DHT22;8700;48.222;16.342;2023-04-01T00:05:57;12.10;99.90
17170;DHT22;8700;48.222;16.342;2023-04-01T00:09:21;12.10;99.90
17170;DHT22;8700;48.222;16.342;2023-04-01T00:12:42;12.10;99.90
17170;DHT22;8700;48.222;16.342;2023-04-01T00:16:04;12.10;99.90
17170;DHT22;8700;48.222;16.342;2023-04-01T00:19:25;11.90;99.90
17170;DHT22;8700;48.222;16.342;2023-04-01T00:22:47;11.90;99.90
17170;DHT22;8700;48.222;16.342;2023-04-01T00:26:09;12.10;99.90
17170;DHT22;8700;48.222;16.342;2023-04-01T00:29:31;12.10;99.90
17170;DHT22;8700;48.222;16.342;2023-04-01T00:32:53;12.00;99.90
17170;DHT22;8700;48.222;16.342;2023-04-01T00:36:16;11.90;99.90
17170;DHT22;8700;48.222;16.342;2023-04-01T00:39:37;11.80;99.90
17170;DHT22;8700;48.222;16.342;2023-04-01T00:43:00;11.80;99.90
17170;DHT22;8700;48.222;16.342;2023-04-01T00:46:22;11.90;99.90
17170;DHT22;8700;48.222;16.342;2023-04-01T00:49:45;12.00;99.90
17170;DHT22;8700;48.222;16.342;2023-04-01T00:53:07;12.10;99.90
17170;DHT22;8700;48.222;16.342;2023-04-01T00:56:32;12.00;99.90
17170;DHT22;8700;48.222;16.342;2023-04-01T00:59:56;12.10;99.90
17170;DHT22;8700;48.222;16.342;2023-04-01T01:03:19;12.20;99.90
17170;DHT22;8700;48.222;16.342;2023-04-01T01:06:47;12.10;99.90
17170;DHT22;8700;48.222;16.342;2023-04-01T01:10:18;12.10;99.90
17170;DHT22;8700;48.222;16.342;2023-04-01T01:13:43;12.10;99.90
17170;DHT22;8700;48.222;16.342;2023-04-01T01:17:13;12.10;99.90
17170;DHT22;8700;48.222;16.342;2023-04-01T01:21:01;12.00;99.90
17170;DHT22;8700;48.222;16.342;2023-04-01T01:24:47;12.10;99.90
17170;DHT22;8700;48.222;16.342;2023-04-01T01:28:29;12.20;99.90
17170;DHT22;8700;48.222;16.342;2023-04-01T01:31:58;12.20;99.90
17170;DHT22;8700;48.222;16.342;2023-04-01T01:35:27;12.00;99.90
17170;DHT22;8700;48.222;16.342;2023-04-01T01:38:51;12.10;99.90
17170;DHT22;8700;48.222;16.342;2023-04-01T01:42:15;12.10;99.90
17170;DHT22;8700;48.222;16.342;2023-04-01T01:45:40;12.10;99.90
17170;DHT22;8700;48.222;16.342;2023-04-01T01:49:04;12.00;99.90
17170;DHT22;8700;48.222;16.342;2023-04-01T01:52:28;12.20;99.90
17170;DHT22;8700;48.222;16.342;2023-04-01T01:55:50;12.10;99.90
17170;DHT22;8700;48.222;16.342;2023-04-01T01:59:13;12.10;99.90
17170;DHT22;8700;48.222;16.342;2023-04-01T02:02:35;12.00;99.90
17170;DHT22;8700;48.222;16.342;2023-04-01T02:05:59;12.10;99.90
17170;DHT22;8700;48.222;16.342;2023-04-01T02:09:22;12.00;99.90
17170;DHT22;8700;48.222;16.342;2023-04-01T02:12:46;12.00;99.90
17170;DHT22;8700;48.222;16.342;2023-04-01T02:16:13;11.90;99.90
17170;DHT22;8700;48.222;16.342;2023-04-01T02:19:38;11.80;99.90
17170;DHT22;8700;48.222;16.342;2023-04-01T02:23:00;11.70;99.90
17170;DHT22;8700;48.222;16.342;2023-04-01T02:26:25;11.80;99.90
17170;DHT22;8700;48.222;16.342;2023-04-01T02:29:46;11.90;99.90
17170;DHT22;8700;48.222;16.342;2023-04-01T02:33:08;11.80;99.90
17170;DHT22;8700;48.222;16.342;2023-04-01T02:36:30;11.70;99.90
17170;DHT22;8700;48.222;16.342;2023-04-01T02:39:51;11.70;99.90
17170;DHT22;8700;48.222;16.342;2023-04-01T02:43:14;11.70;99.90
17170;DHT22;8700;48.222;16.342;2023-04-01T02:46:36;11.70;99.90
17170;DHT22;8700;48.222;16.342;2023-04-01T02:49:57;11.50;99.90
17170;DHT22;8700;48.222;16.342;2023-04-01T02:53:19;11.60;99.90
17170;DHT22;8700;48.222;16.342;2023-04-01T02:56:40;11.60;99.90
17170;DHT22;8700;48.222;16.342;2023-04-01T03:00:03;11.60;99.90
17170;DHT22;8700;48.222;16.342;2023-04-01T03:03:24;11.30;99.90
17170;DHT22;8700;48.222;16.342;2023-04-01T03:06:46;11.30;99.90
17170;DHT22;8700;48.222;16.342;2023-04-01T03:10:08;11.20;99.90
17170;DHT22;8700;48.222;16.342;2023-04-01T03:13:29;11.10;99.90
17170;DHT22;8700;48.222;16.342;2023-04-01T03:16:52;11.10;99.90
17170;DHT22;8700;48.222;16.342;2023-04-01T03:20:14;10.90;99.90
17170;DHT22;8700;48.222;16.342;2023-04-01T03:23:35;11.10;99.90
17170;DHT22;8700;48.222;16.342;2023-04-01T03:26:56;11.00;99.90
17170;DHT22;8700;48.222;16.342;2023-04-01T03:30:17;10.90;99.90
17170;DHT22;8700;48.222;16.342;2023-04-01T03:33:40;11.10;99.90
17170;DHT22;8700;48.222;16.342;2023-04-01T03:37:01;11.20;99.90
17170;DHT22;8700;48.222;16.342;2023-04-01T03:40:23;11.10;99.90
17170;DHT22;8700;48.222;16.342;2023-04-01T03:43:45;10.90;99.90
17170;DHT22;8700;48.222;16.342;2023-04-01T03:47:07;10.70;99.90
17170;DHT22;8700;48.222;16.342;2023-04-01T03:50:30;10.70;99.90
17170;DHT22;8700;48.222;16.342;2023-04-01T03:53:51;10.60;99.90
17170;DHT22;8700;48.222;16.342;2023-04-01T03:57:12;10.60;99.90
17170;DHT22;8700;48.222;16.342;2023-04-01T04:00:34;10.60;99.90
17170;DHT22;8700;48.222;16.342;2023-04-01T04:03:55;10.80;99.90
17170;DHT22;8700;48.222;16.342;2023-04-01T04:07:21;10.90;99.90
17170;DHT22;8700;48.222;16.342;2023-04-01T04:10:42;11.00;99.90
17170;DHT22;8700;48.222;16.342;2023-04-01T04:14:03;11.20;99.90
17170;DHT22;8700;48.222;16.342;2023-04-01T04:17:24;11.10;99.90
17170;DHT22;8700;48.222;16.342;2023-04-01T04:20:46;10.80;99.90
17170;DHT22;8700;48.222;16.342;2023-04-01T04:24:11;10.80;99.90
17170;DHT22;8700;48.222;16.342;2023-04-01T04:27:33;11.00;99.90
17170;DHT22;8700;48.222;16.342;2023-04-01T04:30:55;11.00;99.90
17170;DHT22;8700;48.222;16.342;2023-04-01T04:34:16;11.20;99.90
17170;DHT22;8700;48.222;16.342;2023-04-01T04:37:38;11.20;99.90
17170;DHT22;8700;48.222;16.342;2023-04-01T04:41:00;11.10;99.90
17170;DHT22;8700;48.222;16.342;2023-04-01T04:44:22;11.20;99.90
17170;DHT22;8700;48.222;16.342;2023-04-01T04:47:43;11.20;99.90
17170;DHT22;8700;48.222;16.342;2023-04-01T04:51:04;11.10;99.90
17170;DHT22;8700;48.222;16.342;2023-04-01T04:54:26;10.90;99.90
17170;DHT22;8700;48.222;16.342;2023-04-01T04:57:48;11.10;99.90
17170;DHT22;8700;48.222;16.342;2023-04-01T05:01:12;11.10;99.90
17170;DHT22;8700;48.222;16.342;2023-04-01T05:04:35;11.10;99.90
17170;DHT22;8700;48.222;16.342;2023-04-01T05:07:56;11.00;99.90
17170;DHT22;8700;48.222;16.342;2023-04-01T05:11:19;10.90;99.90
17170;DHT22;8700;48.222;16.342;2023-04-01T05:14:42;10.90;99.90
17170;DHT22;8700;48.222;16.342;2023-04-01T05:18:04;10.80;99.90
17170;DHT22;8700;48.222;16.342;2023-04-01T05:21:25;10.70;99.90
17170;DHT22;8700;48.222;16.342;2023-04-01T05:24:46;10.80;99.90
17170;DHT22;8700;48.222;16.342;2023-04-01T05:28:08;10.90;99.90
17170;DHT22;8700;48.222;16.342;2023-04-01T05:31:30;11.10;99.90
17170;DHT22;8700;48.222;16.342;2023-04-01T05:34:52;11.10;99.90
17170;DHT22;8700;48.222;16.342;2023-04-01T05:38:13;11.00;99.90
17170;DHT22;8700;48.222;16.342;2023-04-01T05:41:35;11.10;99.90
17170;DHT22;8700;48.222;16.342;2023-04-01T05:44:56;11.10;99.90
17170;DHT22;8700;48.222;16.342;2023-04-01T05:48:19;11.10;99.90
17170;DHT22;8700;48.222;16.342;2023-04-01T05:51:40;11.10;99.90
17170;DHT22;8700;48.222;16.342;2023-04-01T05:55:01;11.00;99.90
17170;DHT22;8700;48.222;16.342;2023-04-01T05:58:23;11.10;99.90
17170;DHT22;8700;48.222;16.342;2023-04-01T06:01:44;11.40;99.90
17170;DHT22;8700;48.222;16.342;2023-04-01T06:05:14;11.50;99.90
17170;DHT22;8700;48.222;16.342;2023-04-01T06:08:37;11.70;99.90
17170;DHT22;8700;48.222;16.342;2023-04-01T06:12:37;11.60;99.90
17170;DHT22;8700;48.222;16.342;2023-04-01T06:16:07;11.70;99.90
17170;DHT22;8700;48.222;16.342;2023-04-01T06:19:39;11.90;99.90
17170;DHT22;8700;48.222;16.342;2023-04-01T06:23:14;12.10;99.90
17170;DHT22;8700;48.222;16.342;2023-04-01T06:26:45;12.00;99.90
17170;DHT22;8700;48.222;16.342;2023-04-01T06:30:23;12.00;99.90
17170;DHT22;8700;48.222;16.342;2023-04-01T06:33:56;12.00;99.90
17170;DHT22;8700;48.222;16.342;2023-04-01T06:41:41;12.50;99.90
17170;DHT22;8700;48.222;16.342;2023-04-01T06:45:14;12.50;99.90
17170;DHT22;8700;48.222;16.342;2023-04-01T06:48:51;12.50;99.90
17170;DHT22;8700;48.222;16.342;2023-04-01T06:52:19;12.50;99.90
17170;DHT22;8700;48.222;16.342;2023-04-01T06:55:46;12.50;99.90
17170;DHT22;8700;48.222;16.342;2023-04-01T06:59:12;12.40;99.90
17170;DHT22;8700;48.222;16.342;2023-04-01T07:02:39;12.50;99.90
17170;DHT22;8700;48.222;16.342;2023-04-01T07:06:04;12.50;99.90
17170;DHT22;8700;48.222;16.342;2023-04-01T07:09:28;12.70;99.90
17170;DHT22;8700;48.222;16.342;2023-04-01T07:12:53;12.70;99.90
17170;DHT22;8700;48.222;16.342;2023-04-01T07:16:21;13.10;99.90
17170;DHT22;8700;48.222;16.342;2023-04-01T07:19:48;13.30;99.90
17170;DHT22;8700;48.222;16.342;2023-04-01T07:23:20;13.70;99.90
17170;DHT22;8700;48.222;16.342;2023-04-01T07:26:41;13.20;99.90
17170;DHT22;8700;48.222;16.342;2023-04-01T07:30:06;13.20;99.90
17170;DHT22;8700;48.222;16.342;2023-04-01T07:33:40;13.10;99.90
17170;DHT22;8700;48.222;16.342;2023-04-01T07:37:09;13.10;99.90
17170;DHT22;8700;48.222;16.342;2023-04-01T07:40:39;12.80;99.90
17170;DHT22;8700;48.222;16.342;2023-04-01T07:44:08;12.80;99.90
17170;DHT22;8700;48.222;16.342;2023-04-01T07:47:45;12.90;99.90
17170;DHT22;8700;48.222;16.342;2023-04-01T07:51:18;13.00;99.90
17170;DHT22;8700;48.222;16.342;2023-04-01T07:54:43;13.40;99.90
17170;DHT22;8700;48.222;16.342;2023-04-01T07:58:13;13.50;99.90
17170;DHT22;8700;48.222;16.342;2023-04-01T08:01:41;13.70;99.90
17170;DHT22;8700;48.222;16.342;2023-04-01T08:05:17;13.70;99.90
17170;DHT22;8700;48.222;16.342;2023-04-01T08:08:50;13.80;99.90
17170;DHT22;8700;48.222;16.342;2023-04-01T08:12:25;13.70;99.90
17170;DHT22;8700;48.222;16.342;2023-04-01T08:15:53;13.80;99.90
17170;DHT22;8700;48.222;16.342;2023-04-01T08:19:26;14.30;99.90
17170;DHT22;8700;48.222;16.342;2023-04-01T08:22:51;14.90;99.90
17170;DHT22;8700;48.222;16.342;2023-04-01T08:26:26;15.60;99.90
17170;DHT22;8700;48.222;16.342;2023-04-01T08:29:53;16.10;99.90
17170;DHT22;8700;48.222;16.342;2023-04-01T08:33:23;15.30;99.90
17170;DHT22;8700;48.222;16.342;2023-04-01T08:36:47;15.60;99.90
17170;DHT22;8700;48.222;16.342;2023-04-01T08:40:32;15.50;99.90
17170;DHT22;8700;48.222;16.342;2023-04-01T08:52:11;15.30;99.90
17170;DHT22;8700;48.222;16.342;2023-04-01T08:55:40;15.50;99.90
17170;DHT22;8700;48.222;16.342;2023-04-01T08:59:24;15.70;99.90
17170;DHT22;8700;48.222;16.342;2023-04-01T09:07:05;15.10;99.90
17170;DHT22;8700;48.222;16.342;2023-04-01T09:10:39;14.70;99.90
17170;DHT22;8700;48.222;16.342;2023-04-01T09:14:25;15.10;99.90
17170;DHT22;8700;48.222;16.342;2023-04-01T09:18:09;14.90;99.90
17170;DHT22;8700;48.222;16.342;2023-04-01T09:21:45;14.70;99.90
17170;DHT22;8700;48.222;16.342;2023-04-01T09:25:26;15.00;99.90
17170;DHT22;8700;48.222;16.342;2023-04-01T09:28:57;15.70;99.90
17170;DHT22;8700;48.222;16.342;2023-04-01T09:36:27;15.30;99.90
17170;DHT22;8700;48.222;16.342;2023-04-01T09:40:12;15.00;99.90
17170;DHT22;8700;48.222;16.342;2023-04-01T09:43:49;14.70;99.90
17170;DHT22;8700;48.222;16.342;2023-04-01T09:47:41;14.20;99.90
17170;DHT22;8700;48.222;16.342;2023-04-01T09:51:26;16.50;99.90
17170;DHT22;8700;48.222;16.342;2023-04-01T09:55:04;18.60;99.30
17170;DHT22;8700;48.222;16.342;2023-04-01T10:06:58;17.50;99.00
17170;DHT22;8700;48.222;16.342;2023-04-01T10:14:46;18.20;97.00
17170;DHT22;8700;48.222;16.342;2023-04-01T10:23:02;18.60;93.50
17170;DHT22;8700;48.222;16.342;2023-04-01T10:26:54;18.70;92.00
17170;DHT22;8700;48.222;16.342;2023-04-01T10:39:03;16.20;96.80
17170;DHT22;8700;48.222;16.342;2023-04-01T10:47:21;15.50;99.90
17170;DHT22;8700;48.222;16.342;2023-04-01T10:51:10;15.50;99.90
17170;DHT22;8700;48.222;16.342;2023-04-01T10:54:43;15.80;99.90
17170;DHT22;8700;48.222;16.342;2023-04-01T10:58:42;16.20;99.90
17170;DHT22;8700;48.222;16.342;2023-04-01T11:06:37;15.90;99.90
17170;DHT22;8700;48.222;16.342;2023-04-01T11:10:57;16.20;99.90
17170;DHT22;8700;48.222;16.342;2023-04-01T11:15:08;16.30;99.20
17170;DHT22;8700;48.222;16.342;2023-04-01T11:18:54;17.20;96.40
17170;DHT22;8700;48.222;16.342;2023-04-01T11:26:32;16.00;98.80
17170;DHT22;8700;48.222;16.342;2023-04-01T11:30:16;15.90;99.10
17170;DHT22;8700;48.222;16.342;2023-04-01T11:33:45;16.30;98.60
17170;DHT22;8700;48.222;16.342;2023-04-01T11:37:18;16.40;98.70
17170;DHT22;8700;48.222;16.342;2023-04-01T11:40:47;16.40;98.40
17170;DHT22;8700;48.222;16.342;2023-04-01T11:44:17;16.40;97.70
17170;DHT22;8700;48.222;16.342;2023-04-01T11:48:13;17.00;96.50
17170;DHT22;8700;48.222;16.342;2023-04-01T11:51:52;17.00;96.00
17170;DHT22;8700;48.222;16.342;2023-04-01T11:55:28;15.70;97.70
17170;DHT22;8700;48.222;16.342;2023-04-01T11:59:27;15.60;98.00
17170;DHT22;8700;48.222;16.342;2023-04-01T12:03:05;15.90;98.60
17170;DHT22;8700;48.222;16.342;2023-04-01T12:06:35;16.40;97.50
17170;DHT22;8700;48.222;16.342;2023-04-01T12:10:12;16.50;97.00
17170;DHT22;8700;48.222;16.342;2023-04-01T12:13:42;16.40;97.60
17170;DHT22;8700;48.222;16.342;2023-04-01T12:17:12;17.40;96.10
17170;DHT22;8700;48.222;16.342;2023-04-01T12:20:43;17.90;95.00
17170;DHT22;8700;48.222;16.342;2023-04-01T12:24:32;18.00;92.80
17170;DHT22;8700;48.222;16.342;2023-04-01T12:28:03;17.80;92.10
17170;DHT22;8700;48.222;16.342;2023-04-01T12:31:34;17.60;92.20
17170;DHT22;8700;48.222;16.342;2023-04-01T12:35:17;17.90;91.80
17170;DHT22;8700;48.222;16.342;2023-04-01T12:38:48;18.20;91.30
17170;DHT22;8700;48.222;16.342;2023-04-01T12:42:22;17.60;92.00
17170;DHT22;8700;48.222;16.342;2023-04-01T12:45:57;16.50;94.00
17170;DHT22;8700;48.222;16.342;2023-04-01T12:49:43;16.50;94.80
17170;DHT22;8700;48.222;16.342;2023-04-01T12:53:27;16.30;95.50
17170;DHT22;8700;48.222;16.342;2023-04-01T12:57:04;16.60;97.70
17170;DHT22;8700;48.222;16.342;2023-04-01T13:00:43;17.30;98.60
17170;DHT22;8700;48.222;16.342;2023-04-01T13:04:39;18.10;95.90
17170;DHT22;8700;48.222;16.342;2023-04-01T13:08:18;18.50;94.00
17170;DHT22;8700;48.222;16.342;2023-04-01T13:11:54;17.90;94.50
17170;DHT22;8700;48.222;16.342;2023-04-01T13:15:34;18.00;92.20
17170;DHT22;8700;48.222;16.342;2023-04-01T13:19:00;18.20;91.20
17170;DHT22;8700;48.222;16.342;2023-04-01T13:22:30;18.60;88.80
17170;DHT22;8700;48.222;16.342;2023-04-01T13:26:03;18.60;85.80
17170;DHT22;8700;48.222;16.342;2023-04-01T13:29:29;18.00;85.90
17170;DHT22;8700;48.222;16.342;2023-04-01T13:32:59;17.90;87.40
17170;DHT22;8700;48.222;16.342;2023-04-01T13:36:26;18.10;87.00
17170;DHT22;8700;48.222;16.342;2023-04-01T13:43:41;17.80;87.30
17170;DHT22;8700;48.222;16.342;2023-04-01T13:47:21;17.90;86.50
17170;DHT22;8700;48.222;16.342;2023-04-01T13:51:14;18.20;83.60
17170;DHT22;8700;48.222;16.342;2023-04-01T13:55:08;18.70;80.50
17170;DHT22;8700;48.222;16.342;2023-04-01T14:02:45;18.20;83.10
17170;DHT22;8700;48.222;16.342;2023-04-01T14:06:29;18.20;83.80
17170;DHT22;8700;48.222;16.342;2023-04-01T14:10:02;17.20;87.50
17170;DHT22;8700;48.222;16.342;2023-04-01T14:13:34;17.10;87.40
17170;DHT22;8700;48.222;16.342;2023-04-01T14:17:13;17.10;88.70
17170;DHT22;8700;48.222;16.342;2023-04-01T14:20:41;17.40;87.70
17170;DHT22;8700;48.222;16.342;2023-04-01T14:24:24;17.40;87.30
17170;DHT22;8700;48.222;16.342;2023-04-01T14:27:59;17.70;87.20
17170;DHT22;8700;48.222;16.342;2023-04-01T14:31:47;18.40;84.30
17170;DHT22;8700;48.222;16.342;2023-04-01T14:35:29;18.40;81.60
17170;DHT22;8700;48.222;16.342;2023-04-01T14:39:03;18.60;79.90
17170;DHT22;8700;48.222;16.342;2023-04-01T14:42:44;19.00;77.20
17170;DHT22;8700;48.222;16.342;2023-04-01T14:46:27;18.80;77.30
17170;DHT22;8700;48.222;16.342;2023-04-01T14:50:02;18.90;75.30
17170;DHT22;8700;48.222;16.342;2023-04-01T14:53:30;19.00;74.70
17170;DHT22;8700;48.222;16.342;2023-04-01T14:57:05;19.00;72.90
17170;DHT22;8700;48.222;16.342;2023-04-01T15:00:41;18.70;72.40
17170;DHT22;8700;48.222;16.342;2023-04-01T15:08:09;18.30;73.40
17170;DHT22;8700;48.222;16.342;2023-04-01T15:11:47;18.20;73.70
17170;DHT22;8700;48.222;16.342;2023-04-01T15:15:22;17.90;73.80
17170;DHT22;8700;48.222;16.342;2023-04-01T15:18:53;18.00;73.90
17170;DHT22;8700;48.222;16.342;2023-04-01T15:22:40;18.30;72.10
17170;DHT22;8700;48.222;16.342;2023-04-01T15:26:16;18.00;73.70
17170;DHT22;8700;48.222;16.342;2023-04-01T15:34:20;17.60;76.10
17170;DHT22;8700;48.222;16.342;2023-04-01T15:37:51;17.50;78.30
17170;DHT22;8700;48.222;16.342;2023-04-01T15:41:15;17.60;80.10
17170;DHT22;8700;48.222;16.342;2023-04-01T15:44:52;17.40;82.10
17170;DHT22;8700;48.222;16.342;2023-04-01T15:48:30;17.10;83.90
17170;DHT22;8700;48.222;16.342;2023-04-01T15:52:05;16.70;88.30
17170;DHT22;8700;48.222;16.342;2023-04-01T15:55:29;16.10;90.90
17170;DHT22;8700;48.222;16.342;2023-04-01T15:59:00;15.70;92.30
17170;DHT22;8700;48.222;16.342;2023-04-01T16:02:31;15.40;94.00
17170;DHT22;8700;48.222;16.342;2023-04-01T16:06:07;15.60;95.10
17170;DHT22;8700;48.222;16.342;2023-04-01T16:09:48;15.70;95.50
17170;DHT22;8700;48.222;16.342;2023-04-01T16:13:32;15.80;95.50
17170;DHT22;8700;48.222;16.342;2023-04-01T16:17:11;15.50;96.20
17170;DHT22;8700;48.222;16.342;2023-04-01T16:20:46;15.70;96.50
17170;DHT22;8700;48.222;16.342;2023-04-01T16:24:15;15.70;96.80
17170;DHT22;8700;48.222;16.342;2023-04-01T16:27:47;15.70;97.30
17170;DHT22;8700;48.222;16.342;2023-04-01T16:31:15;15.80;97.60
17170;DHT22;8700;48.222;16.342;2023-04-01T16:34:43;15.70;98.10
17170;DHT22;8700;48.222;16.342;2023-04-01T16:38:13;15.50;98.70
17170;DHT22;8700;48.222;16.342;2023-04-01T16:41:38;15.40;99.60
17170;DHT22;8700;48.222;16.342;2023-04-01T16:45:17;15.30;99.90
17170;DHT22;8700;48.222;16.342;2023-04-01T16:48:52;15.00;99.90
17170;DHT22;8700;48.222;16.342;2023-04-01T16:52:40;15.00;99.90
17170;DHT22;8700;48.222;16.342;2023-04-01T16:56:10;14.80;99.90
17170;DHT22;8700;48.222;16.342;2023-04-01T16:59:35;14.80;99.90
17170;DHT22;8700;48.222;16.342;2023-04-01T17:03:12;14.60;99.90
17170;DHT22;8700;48.222;16.342;2023-04-01T17:06:43;14.30;99.90
17170;DHT22;8700;48.222;16.342;2023-04-01T17:14:02;14.10;99.90
17170;DHT22;8700;48.222;16.342;2023-04-01T17:17:34;13.90;99.90
17170;DHT22;8700;48.222;16.342;2023-04-01T17:21:07;13.90;99.90
17170;DHT22;8700;48.222;16.342;2023-04-01T17:24:44;13.70;99.90
17170;DHT22;8700;48.222;16.342;2023-04-01T17:28:17;13.40;99.90
17170;DHT22;8700;48.222;16.342;2023-04-01T17:31:46;13.00;99.90
17170;DHT22;8700;48.222;16.342;2023-04-01T17:35:14;13.10;99.90
17170;DHT22;8700;48.222;16.342;2023-04-01T17:38:54;13.10;99.90
17170;DHT22;8700;48.222;16.342;2023-04-01T17:42:22;13.10;99.90
17170;DHT22;8700;48.222;16.342;2023-04-01T17:45:54;13.20;99.90
17170;DHT22;8700;48.222;16.342;2023-04-01T17:49:23;13.40;99.90
17170;DHT22;8700;48.222;16.342;2023-04-01T17:52:52;13.40;99.90
17170;DHT22;8700;48.222;16.342;2023-04-01T17:56:23;12.90;99.90
17170;DHT22;8700;48.222;16.342;2023-04-01T17:59:53;12.90;99.90
17170;DHT22;8700;48.222;16.342;2023-04-01T18:03:24;12.90;99.90
17170;DHT22;8700;48.222;16.342;2023-04-01T18:07:04;12.90;99.90
17170;DHT22;8700;48.222;16.342;2023-04-01T18:10:34;12.80;99.90
17170;DHT22;8700;48.222;16.342;2023-04-01T18:18:08;12.50;99.90
17170;DHT22;8700;48.222;16.342;2023-04-01T18:21:40;12.30;99.90
17170;DHT22;8700;48.222;16.342;2023-04-01T18:25:15;12.40;99.90
17170;DHT22;8700;48.222;16.342;2023-04-01T18:28:39;12.40;99.90
17170;DHT22;8700;48.222;16.342;2023-04-01T18:32:26;12.50;99.90
17170;DHT22;8700;48.222;16.342;2023-04-01T18:35:52;12.40;99.90
17170;DHT22;8700;48.222;16.342;2023-04-01T18:39:17;12.50;99.90
17170;DHT22;8700;48.222;16.342;2023-04-01T18:42:46;12.40;99.90
17170;DHT22;8700;48.222;16.342;2023-04-01T18:46:19;12.50;99.90
17170;DHT22;8700;48.222;16.342;2023-04-01T18:49:50;12.40;99.90
17170;DHT22;8700;48.222;16.342;2023-04-01T18:53:19;12.20;99.90
17170;DHT22;8700;48.222;16.342;2023-04-01T18:56:43;12.30;99.90
17170;DHT22;8700;48.222;16.342;2023-04-01T19:00:14;12.00;99.90
17170;DHT22;8700;48.222;16.342;2023-04-01T19:03:43;12.00;99.90
17170;DHT22;8700;48.222;16.342;2023-04-01T19:07:44;12.00;99.90
17170;DHT22;8700;48.222;16.342;2023-04-01T19:11:11;12.10;99.90
17170;DHT22;8700;48.222;16.342;2023-04-01T19:14:52;12.00;99.90
17170;DHT22;8700;48.222;16.342;2023-04-01T19:22:25;11.90;99.90
17170;DHT22;8700;48.222;16.342;2023-04-01T19:25:50;11.80;99.90
17170;DHT22;8700;48.222;16.342;2023-04-01T19:29:24;12.00;99.90
17170;DHT22;8700;48.222;16.342;2023-04-01T19:32:55;11.90;99.90
17170;DHT22;8700;48.222;16.342;2023-04-01T19:36:24;11.80;99.90
17170;DHT22;8700;48.222;16.342;2023-04-01T19:39:59;11.70;99.90
17170;DHT22;8700;48.222;16.342;2023-04-01T19:43:39;11.70;99.90
17170;DHT22;8700;48.222;16.342;2023-04-01T19:47:11;11.70;99.90
17170;DHT22;8700;48.222;16.342;2023-04-01T19:50:37;11.70;99.90
17170;DHT22;8700;48.222;16.342;2023-04-01T19:54:09;11.60;99.90
17170;DHT22;8700;48.222;16.342;2023-04-01T19:57:41;11.50;99.90
17170;DHT22;8700;48.222;16.342;2023-04-01T20:01:10;11.40;99.90
17170;DHT22;8700;48.222;16.342;2023-04-01T20:04:36;11.30;99.90
17170;DHT22;8700;48.222;16.342;2023-04-01T20:08:04;11.20;99.90
17170;DHT22;8700;48.222;16.342;2023-04-01T20:11:38;11.40;99.90
17170;DHT22;8700;48.222;16.342;2023-04-01T20:15:22;11.40;99.90
17170;DHT22;8700;48.222;16.342;2023-04-01T20:18:48;11.50;99.90
17170;DHT22;8700;48.222;16.342;2023-04-01T20:22:25;11.50;99.90
17170;DHT22;8700;48.222;16.342;2023-04-01T20:25:52;11.60;99.90
17170;DHT22;8700;48.222;16.342;2023-04-01T20:29:37;11.50;99.90
17170;DHT22;8700;48.222;16.342;2023-04-01T20:33:20;11.20;99.90
17170;DHT22;8700;48.222;16.342;2023-04-01T20:36:56;11.30;99.90
17170;DHT22;8700;48.222;16.342;2023-04-01T20:40:31;11.20;99.90
17170;DHT22;8700;48.222;16.342;2023-04-01T20:43:59;11.30;99.90
17170;DHT22;8700;48.222;16.342;2023-04-01T20:47:40;11.30;99.90
17170;DHT22;8700;48.222;16.342;2023-04-01T20:51:06;11.40;99.90
17170;DHT22;8700;48.222;16.342;2023-04-01T20:54:47;11.40;99.90
17170;DHT22;8700;48.222;16.342;2023-04-01T20:58:19;11.50;99.90
17170;DHT22;8700;48.222;16.342;2023-04-01T21:01:47;11.50;99.90
17170;DHT22;8700;48.222;16.342;2023-04-01T21:05:34;11.50;99.90
17170;DHT22;8700;48.222;16.342;2023-04-01T21:09:31;11.60;99.90
17170;DHT22;8700;48.222;16.342;2023-04-01T21:13:07;11.60;99.90
17170;DHT22;8700;48.222;16.342;2023-04-01T21:16:41;11.50;99.90
17170;DHT22;8700;48.222;16.342;2023-04-01T21:20:18;11.50;99.90
17170;DHT22;8700;48.222;16.342;2023-04-01T21:24:04;11.60;99.90
17170;DHT22;8700;48.222;16.342;2023-04-01T21:27:48;11.60;99.90
17170;DHT22;8700;48.222;16.342;2023-04-01T21:31:24;11.70;99.90
17170;DHT22;8700;48.222;16.342;2023-04-01T21:34:50;11.30;99.90
17170;DHT22;8700;48.222;16.342;2023-04-01T21:38:27;11.40;99.90
17170;DHT22;8700;48.222;16.342;2023-04-01T21:42:05;11.40;99.90
17170;DHT22;8700;48.222;16.342;2023-04-01T21:45:49;11.60;99.90
17170;DHT22;8700;48.222;16.342;2023-04-01T21:53:41;11.50;99.90
17170;DHT22;8700;48.222;16.342;2023-04-01T21:57:33;11.60;99.90
17170;DHT22;8700;48.222;16.342;2023-04-01T22:01:11;11.50;99.90
17170;DHT22;8700;48.222;16.342;2023-04-01T22:04:52;11.50;99.90
17170;DHT22;8700;48.222;16.342;2023-04-01T22:08:41;11.40;99.90
17170;DHT22;8700;48.222;16.342;2023-04-01T22:12:10;11.60;99.90
17170;DHT22;8700;48.222;16.342;2023-04-01T22:15:51;11.70;99.90
17170;DHT22;8700;48.222;16.342;2023-04-01T22:19:20;11.40;99.90
17170;DHT22;8700;48.222;16.342;2023-04-01T22:22:55;11.40;99.90
17170;DHT22;8700;48.222;16.342;2023-04-01T22:26:26;11.50;99.90
17170;DHT22;8700;48.222;16.342;2023-04-01T22:29:59;11.70;99.90
17170;DHT22;8700;48.222;16.342;2023-04-01T22:33:30;11.70;99.90
17170;DHT22;8700;48.222;16.342;2023-04-01T22:36:58;11.40;99.90
17170;DHT22;8700;48.222;16.342;2023-04-01T22:40:25;11.20;99.90
17170;DHT22;8700;48.222;16.342;2023-04-01T22:43:49;11.50;99.90
17170;DHT22;8700;48.222;16.342;2023-04-01T22:47:20;11.50;99.90
17170;DHT22;8700;48.222;16.342;2023-04-01T22:50:48;11.50;99.90
17170;DHT22;8700;48.222;16.342;2023-04-01T22:54:20;11.60;99.90
17170;DHT22;8700;48.222;16.342;2023-04-01T22:57:47;11.60;99.90
17170;DHT22;8700;48.222;16.342;2023-04-01T23:01:14;11.30;99.90
17170;DHT22;8700;48.222;16.342;2023-04-01T23:04:40;11.20;99.90
17170;DHT22;8700;48.222;16.342;2023-04-01T23:12:09;11.40;99.90
17170;DHT22;8700;48.222;16.342;2023-04-01T23:15:33;11.50;99.90
17170;DHT22;8700;48.222;16.342;2023-04-01T23:18:58;11.50;99.90
17170;DHT22;8700;48.222;16.342;2023-04-01T23:22:28;11.50;99.90
17170;DHT22;8700;48.222;16.342;2023-04-01T23:25:55;11.60;99.90
17170;DHT22;8700;48.222;16.342;2023-04-01T23:29:21;11.80;99.90
17170;DHT22;8700;48.222;16.342;2023-04-01T23:32:43;11.60;99.90
17170;DHT22;8700;48.222;16.342;2023-04-01T23:36:13;11.40;99.90
17170;DHT22;8700;48.222;16.342;2023-04-01T23:39:36;11.30;99.90
17170;DHT22;8700;48.222;16.342;2023-04-01T23:42:58;11.30;99.90
17170;DHT22;8700;48.222;16.342;2023-04-01T23:46:21;11.20;99.90
17170;DHT22;8700;48.222;16.342;2023-04-01T23:49:46;11.20;99.90